Time;durP1;ratioP1;P1;durP2;ratioP2;P2;SDS_P1;SDS_P2;PMS_P1;PMS_P2;Temp;Humidity;BMP_temperature;BMP_pressure;BME280_temperature;BME280_humidity;BME280_pressure;Samples;Min_cycle;Max_cycle;Signal;HPM_P1;HPM_P2
2020/12/15 00:01:24;;;;;;;384.95;212.13;;;21.30;51.80;;;;;;5074463;28;20115;-47
2020/12/15 00:03:51;;;;;;;392.48;211.65;;;21.30;51.80;;;;;;5074196;28;20079;-47
2020/12/15 00:06:18;;;;;;;372.45;199.73;;;21.30;51.80;;;;;;5074366;28;20037;-47
2020/12/15 00:08:44;;;;;;;376.88;195.13;;;21.30;51.90;;;;;;5072760;28;20435;-46
2020/12/15 00:11:18;;;;;;;365.90;187.20;;;21.40;51.90;;;;;;5074493;28;20111;-46
2020/12/15 00:13:45;;;;;;;343.77;184.63;;;21.40;51.80;;;;;;5074656;28;20031;-46
2020/12/15 00:16:17;;;;;;;348.83;180.25;;;21.40;51.90;;;;;;5074312;28;20438;-46
2020/12/15 00:18:43;;;;;;;339.75;175.20;;;21.40;51.90;;;;;;5074018;28;20027;-46
2020/12/15 00:21:10;;;;;;;319.35;166.60;;;21.40;52.00;;;;;;5074457;28;20460;-46
2020/12/15 00:23:36;;;;;;;322.27;166.00;;;21.40;52.10;;;;;;5074516;28;20021;-46
2020/12/15 00:26:03;;;;;;;317.02;164.90;;;21.40;52.00;;;;;;5073978;28;20400;-47
2020/12/15 00:28:29;;;;;;;289.85;148.30;;;21.40;51.80;;;;;;5073517;28;20025;-47
2020/12/15 00:30:56;;;;;;;288.10;148.73;;;21.40;52.00;;;;;;5074355;28;20017;-47
2020/12/15 00:33:22;;;;;;;279.25;148.55;;;21.40;52.10;;;;;;5073858;28;20036;-47
2020/12/15 00:35:49;;;;;;;279.10;146.18;;;21.40;52.20;;;;;;5073998;28;20025;-47
2020/12/15 00:38:15;;;;;;;254.95;135.88;;;21.40;52.30;;;;;;5074272;28;20024;-47
2020/12/15 00:40:42;;;;;;;268.60;136.73;;;21.40;52.30;;;;;;5073869;28;20111;-47
2020/12/15 00:43:08;;;;;;;257.85;134.13;;;21.40;52.40;;;;;;5072973;28;20016;-47
2020/12/15 00:45:35;;;;;;;268.48;134.88;;;21.40;52.40;;;;;;5072865;28;20029;-47
2020/12/15 00:48:01;;;;;;;253.93;130.93;;;21.40;52.50;;;;;;5074706;28;20441;-47
2020/12/15 00:50:28;;;;;;;241.02;126.93;;;21.40;52.50;;;;;;5074096;28;20017;-47
2020/12/15 00:52:56;;;;;;;218.40;118.72;;;21.40;52.50;;;;;;5073682;28;20512;-47
2020/12/15 00:55:23;;;;;;;215.02;117.80;;;21.40;52.50;;;;;;5073830;28;20075;-47
2020/12/15 00:57:49;;;;;;;222.95;119.32;;;21.40;52.50;;;;;;5074016;28;20052;-47
2020/12/15 01:00:16;;;;;;;211.02;112.47;;;21.40;52.60;;;;;;5073891;28;20016;-47
2020/12/15 01:02:42;;;;;;;216.18;113.20;;;21.40;52.70;;;;;;5073936;28;20043;-47
2020/12/15 01:05:08;;;;;;;213.55;106.95;;;21.40;52.80;;;;;;5073813;28;20024;-47
2020/12/15 01:07:35;;;;;;;200.02;106.50;;;21.40;52.70;;;;;;5074097;28;20104;-47
2020/12/15 01:10:02;;;;;;;201.80;106.40;;;21.40;52.80;;;;;;5073824;28;20033;-46
2020/12/15 01:12:29;;;;;;;188.18;98.68;;;21.50;52.90;;;;;;5073757;28;20020;-47
2020/12/15 01:14:55;;;;;;;185.18;93.60;;;21.50;52.90;;;;;;5073791;28;20047;-47
2020/12/15 01:17:22;;;;;;;180.80;95.22;;;21.50;52.80;;;;;;5073794;28;20059;-47
2020/12/15 01:19:49;;;;;;;176.77;91.80;;;21.50;52.90;;;;;;5073489;28;20013;-46
2020/12/15 01:22:15;;;;;;;157.23;83.45;;;21.40;52.80;;;;;;5070029;28;20021;-47
2020/12/15 01:24:42;;;;;;;159.57;86.53;;;21.50;52.80;;;;;;5073662;28;20119;-47
2020/12/15 01:27:08;;;;;;;162.98;84.68;;;21.50;52.90;;;;;;5074243;28;20043;-46
2020/12/15 01:29:35;;;;;;;156.38;81.15;;;21.50;53.00;;;;;;5073725;28;20024;-47
2020/12/15 01:32:03;;;;;;;145.40;77.68;;;21.40;52.90;;;;;;5076627;28;20036;-46
2020/12/15 01:34:30;;;;;;;148.38;79.40;;;21.50;53.00;;;;;;5078337;28;20024;-47
2020/12/15 01:36:57;;;;;;;141.52;76.22;;;21.50;53.10;;;;;;5077707;28;20031;-46
2020/12/15 01:39:24;;;;;;;148.45;74.28;;;21.50;53.00;;;;;;5077920;28;20101;-47
2020/12/15 01:41:51;;;;;;;127.47;70.03;;;21.50;53.00;;;;;;5077037;28;20027;-47
2020/12/15 01:44:17;;;;;;;141.85;73.05;;;21.50;53.20;;;;;;5077519;28;20097;-46
2020/12/15 01:46:44;;;;;;;131.07;66.07;;;21.50;53.10;;;;;;5077046;28;20021;-46
2020/12/15 01:49:11;;;;;;;127.90;70.03;;;21.40;53.10;;;;;;5077293;28;20086;-46
2020/12/15 01:51:37;;;;;;;128.65;66.93;;;21.50;53.30;;;;;;5077410;28;20086;-46
2020/12/15 01:54:04;;;;;;;128.25;66.78;;;21.50;53.50;;;;;;5077312;28;20096;-46
2020/12/15 01:56:31;;;;;;;112.85;61.80;;;21.50;53.60;;;;;;5077290;28;20025;-46
2020/12/15 01:59:02;;;;;;;111.70;59.65;;;21.50;53.70;;;;;;5077266;28;20025;-46
2020/12/15 02:01:29;;;;;;;115.95;57.85;;;21.50;53.70;;;;;;5073520;28;20454;-46
2020/12/15 02:03:55;;;;;;;104.15;55.38;;;21.50;53.80;;;;;;5071820;28;20021;-46
2020/12/15 02:06:24;;;;;;;109.13;57.08;;;21.50;53.90;;;;;;5077029;28;20063;-46
2020/12/15 02:08:51;;;;;;;96.65;53.83;;;21.50;54.00;;;;;;5076863;28;20407;-46
2020/12/15 02:11:18;;;;;;;95.85;52.63;;;21.60;54.10;;;;;;5076524;28;20020;-46
2020/12/15 02:13:46;;;;;;;87.25;50.42;;;21.60;54.10;;;;;;5077025;28;20051;-46
2020/12/15 02:16:14;;;;;;;97.38;50.85;;;21.60;54.10;;;;;;5077453;28;20067;-46
2020/12/15 02:18:41;;;;;;;86.68;48.60;;;21.60;54.10;;;;;;5076304;28;20045;-46
2020/12/15 02:21:09;;;;;;;86.93;45.88;;;21.60;54.20;;;;;;5076731;28;20441;-46
2020/12/15 02:23:35;;;;;;;84.40;46.53;;;21.60;54.10;;;;;;5076552;28;20024;-45
2020/12/15 02:26:09;;;;;;;79.00;45.63;;;21.60;54.20;;;;;;5076710;28;20063;-45
2020/12/15 02:28:36;;;;;;;78.88;42.45;;;21.60;54.20;;;;;;5075522;28;20357;-45
2020/12/15 02:31:03;;;;;;;74.47;41.15;;;21.60;54.20;;;;;;5076951;28;20024;-45
2020/12/15 02:33:30;;;;;;;75.03;40.63;;;21.60;54.30;;;;;;5076345;28;20033;-46
2020/12/15 02:35:58;;;;;;;73.65;38.80;;;21.60;54.30;;;;;;5076277;28;20410;-46
2020/12/15 02:38:25;;;;;;;64.70;37.58;;;21.60;54.20;;;;;;5076252;28;20017;-46
2020/12/15 02:40:51;;;;;;;74.85;37.38;;;21.60;54.30;;;;;;5076545;28;20360;-46
2020/12/15 02:43:18;;;;;;;66.18;35.85;;;21.70;54.20;;;;;;5076302;28;20013;-46
2020/12/15 02:45:45;;;;;;;63.53;34.72;;;21.60;54.20;;;;;;5075942;28;20036;-46
2020/12/15 02:48:11;;;;;;;58.75;33.10;;;21.60;54.20;;;;;;5076051;28;20023;-46
2020/12/15 02:50:38;;;;;;;66.85;33.55;;;21.60;54.20;;;;;;5076312;28;20032;-46
2020/12/15 02:53:04;;;;;;;57.00;33.20;;;21.60;54.10;;;;;;5075835;28;20035;-46
2020/12/15 02:55:31;;;;;;;60.47;31.83;;;21.60;54.20;;;;;;5076770;28;20448;-45
2020/12/15 02:57:57;;;;;;;59.42;30.27;;;21.60;54.20;;;;;;5076061;28;20099;-46
2020/12/15 03:00:24;;;;;;;49.95;28.85;;;21.60;54.20;;;;;;5076151;28;20021;-46
2020/12/15 03:02:50;;;;;;;49.65;29.55;;;21.60;54.20;;;;;;5075809;28;20070;-45
2020/12/15 03:05:18;;;;;;;46.38;27.85;;;21.50;54.10;;;;;;5075985;28;20033;-45
2020/12/15 03:07:44;;;;;;;54.97;30.23;;;21.50;54.10;;;;;;5076206;28;20025;-45
2020/12/15 03:10:11;;;;;;;53.38;28.13;;;21.60;54.20;;;;;;5075975;28;20016;-46
2020/12/15 03:12:38;;;;;;;43.50;26.52;;;21.60;54.20;;;;;;5076197;28;20028;-46
2020/12/15 03:15:05;;;;;;;45.83;26.30;;;21.60;54.20;;;;;;5075841;28;20452;-46
2020/12/15 03:17:32;;;;;;;48.42;26.20;;;21.60;54.20;;;;;;5075591;28;20042;-46
2020/12/15 03:19:58;;;;;;;43.42;24.88;;;21.60;54.20;;;;;;5075842;28;20126;-45
2020/12/15 03:22:25;;;;;;;43.08;23.55;;;21.60;54.20;;;;;;5075709;28;20103;-46
2020/12/15 03:24:51;;;;;;;43.95;22.45;;;21.60;54.10;;;;;;5075920;28;20581;-45
2020/12/15 03:27:18;;;;;;;43.85;22.90;;;21.60;54.20;;;;;;5075625;28;20444;-45
2020/12/15 03:29:44;;;;;;;45.88;24.13;;;21.60;54.10;;;;;;5074912;28;20075;-45
2020/12/15 03:32:11;;;;;;;37.75;22.92;;;21.60;54.60;;;;;;5075162;28;20053;-45
2020/12/15 03:34:37;;;;;;;35.03;22.05;;;21.60;54.20;;;;;;5075568;28;20059;-46
2020/12/15 03:37:04;;;;;;;40.08;20.40;;;21.60;54.30;;;;;;5075194;28;20534;-46
2020/12/15 03:39:31;;;;;;;36.10;21.05;;;21.60;54.20;;;;;;5075352;28;20021;-46
2020/12/15 03:41:57;;;;;;;32.05;18.77;;;21.70;54.40;;;;;;5075320;28;20449;-46
2020/12/15 03:44:24;;;;;;;33.53;19.05;;;21.70;54.40;;;;;;5075424;28;20025;-46
2020/12/15 03:46:50;;;;;;;35.58;19.42;;;21.70;54.30;;;;;;5075258;28;20017;-45
2020/12/15 03:49:17;;;;;;;33.15;19.10;;;21.70;54.30;;;;;;5074557;28;20020;-46
2020/12/15 03:51:43;;;;;;;36.33;19.00;;;21.70;54.30;;;;;;5074861;28;20031;-46
2020/12/15 03:54:10;;;;;;;30.42;17.40;;;21.70;54.20;;;;;;5074256;28;20075;-46
2020/12/15 03:56:36;;;;;;;30.95;16.90;;;21.70;54.20;;;;;;5074984;28;20020;-46
2020/12/15 03:59:03;;;;;;;26.92;16.25;;;21.70;54.20;;;;;;5074892;28;20085;-46
2020/12/15 04:01:29;;;;;;;32.80;17.15;;;21.70;54.30;;;;;;5075178;28;20021;-45
2020/12/15 04:03:56;;;;;;;27.90;15.63;;;21.70;54.30;;;;;;5074922;28;20055;-46
2020/12/15 04:06:22;;;;;;;26.08;15.68;;;21.70;54.20;;;;;;5074789;28;20456;-46
2020/12/15 04:08:49;;;;;;;29.10;15.75;;;21.60;54.20;;;;;;5074765;28;20031;-46
2020/12/15 04:11:16;;;;;;;25.80;14.65;;;21.60;54.20;;;;;;5074718;28;20036;-46
2020/12/15 04:13:42;;;;;;;23.67;14.68;;;21.60;54.30;;;;;;5074268;28;20025;-46
2020/12/15 04:16:09;;;;;;;25.77;13.52;;;21.50;54.30;;;;;;5074734;28;20032;-45
2020/12/15 04:18:35;;;;;;;24.42;13.85;;;21.60;54.30;;;;;;5074697;28;20470;-46
2020/12/15 04:21:02;;;;;;;21.38;13.05;;;21.50;54.30;;;;;;5074581;28;20024;-46
2020/12/15 04:23:28;;;;;;;27.10;13.40;;;21.60;54.40;;;;;;5074538;28;20020;-45
2020/12/15 04:26:01;;;;;;;20.35;12.25;;;21.50;54.30;;;;;;5074387;28;20036;-46
2020/12/15 04:28:27;;;;;;;19.85;12.63;;;21.50;54.40;;;;;;5072587;28;20025;-46
2020/12/15 04:30:54;;;;;;;19.23;12.20;;;21.40;54.40;;;;;;5074208;28;20445;-46
2020/12/15 04:33:21;;;;;;;22.10;11.73;;;21.40;54.40;;;;;;5074122;28;20076;-45
2020/12/15 04:35:47;;;;;;;21.67;11.90;;;21.40;54.40;;;;;;5074887;28;20024;-45
2020/12/15 04:38:14;;;;;;;17.48;11.82;;;21.40;54.50;;;;;;5074560;28;20024;-45
2020/12/15 04:40:40;;;;;;;18.08;10.68;;;21.40;54.50;;;;;;5074244;28;20138;-45
2020/12/15 04:43:09;;;;;;;18.10;10.40;;;21.30;54.60;;;;;;5073996;28;20367;-45
2020/12/15 04:45:35;;;;;;;16.67;10.48;;;21.30;54.70;;;;;;5073828;28;20029;-45
2020/12/15 04:48:09;;;;;;;14.68;9.82;;;21.30;54.70;;;;;;5074677;28;20056;-45
2020/12/15 04:50:38;;;;;;;17.73;10.90;;;21.30;54.80;;;;;;5074219;28;20095;-45
2020/12/15 04:53:09;;;;;;;15.77;9.80;;;21.30;54.80;;;;;;5074147;28;20044;-45
2020/12/15 04:55:37;;;;;;;16.05;9.30;;;21.30;54.80;;;;;;5074412;28;20028;-45
2020/12/15 04:58:05;;;;;;;14.73;9.18;;;21.30;54.80;;;;;;5073587;28;20464;-45
2020/12/15 05:00:32;;;;;;;18.83;9.60;;;21.30;54.80;;;;;;5074048;28;20013;-45
2020/12/15 05:03:00;;;;;;;17.35;9.02;;;21.30;54.80;;;;;;5073651;28;20432;-45
2020/12/15 05:05:26;;;;;;;15.60;8.75;;;21.30;54.90;;;;;;5072669;28;20031;-45
2020/12/15 05:07:54;;;;;;;13.45;8.77;;;21.30;54.90;;;;;;5074133;28;20024;-45
2020/12/15 05:10:20;;;;;;;12.40;8.57;;;21.30;54.80;;;;;;5074070;28;20028;-45
2020/12/15 05:12:48;;;;;;;15.00;7.72;;;21.30;54.90;;;;;;5073624;28;20028;-45
2020/12/15 05:15:17;;;;;;;12.70;8.30;;;21.30;54.90;;;;;;5072906;28;20036;-45
2020/12/15 05:17:45;;;;;;;14.65;8.23;;;21.20;54.80;;;;;;5073828;28;20462;-45
2020/12/15 05:20:26;;;;;;;10.38;7.05;;;21.20;54.80;;;;;;5073832;28;20578;-45
2020/12/15 05:22:53;;;;;;;12.82;7.05;;;21.20;54.80;;;;;;5073813;28;20025;-45
2020/12/15 05:25:32;;;;;;;10.57;7.53;;;21.20;54.90;;;;;;5073680;28;20029;-45
2020/12/15 05:28:10;;;;;;;10.55;6.90;;;21.20;54.90;;;;;;5074012;28;20029;-45
2020/12/15 05:30:37;;;;;;;13.55;8.05;;;21.10;54.80;;;;;;5073756;28;20017;-45
2020/12/15 05:33:14;;;;;;;11.60;6.65;;;21.10;54.90;;;;;;5073494;28;20128;-45
2020/12/15 05:35:40;;;;;;;11.90;6.70;;;21.10;54.90;;;;;;5073737;28;20028;-45
2020/12/15 05:38:07;;;;;;;10.27;6.60;;;21.10;54.90;;;;;;5073645;28;20104;-45
2020/12/15 05:40:35;;;;;;;11.10;7.00;;;21.10;55.60;;;;;;5073370;28;20020;-45
2020/12/15 05:43:05;;;;;;;10.57;6.25;;;21.00;54.90;;;;;;5073342;28;20066;-45
2020/12/15 05:45:34;;;;;;;12.82;6.25;;;21.00;54.90;;;;;;5073232;28;20449;-46
2020/12/15 05:48:08;;;;;;;9.20;6.40;;;21.00;55.00;;;;;;5072918;28;20436;-45
2020/12/15 05:50:36;;;;;;;12.60;6.10;;;20.90;55.00;;;;;;5073272;28;20020;-46
2020/12/15 05:53:08;;;;;;;8.88;5.68;;;20.90;55.00;;;;;;5073731;28;20028;-45
2020/12/15 05:55:34;;;;;;;7.88;5.82;;;20.90;55.10;;;;;;5073535;28;20066;-45
2020/12/15 05:58:02;;;;;;;11.05;5.60;;;20.90;55.10;;;;;;5073212;28;20407;-44
2020/12/15 06:00:30;;;;;;;9.50;5.25;;;20.80;55.10;;;;;;5073270;28;20034;-45
2020/12/15 06:02:59;;;;;;;9.85;5.47;;;20.80;55.10;;;;;;5073446;28;20059;-45
2020/12/15 06:05:27;;;;;;;9.25;5.40;;;20.80;55.20;;;;;;5073079;28;20437;-45
2020/12/15 06:07:55;;;;;;;7.25;5.03;;;20.80;55.30;;;;;;5072774;28;20063;-45
2020/12/15 06:10:23;;;;;;;10.02;5.80;;;20.70;55.30;;;;;;5073367;28;20092;-45
2020/12/15 06:12:54;;;;;;;10.07;4.93;;;20.60;55.20;;;;;;5073012;28;20067;-45
2020/12/15 06:15:21;;;;;;;9.25;4.68;;;20.70;55.40;;;;;;5073148;28;20056;-45
2020/12/15 06:17:53;;;;;;;7.03;4.38;;;20.60;55.40;;;;;;5075880;28;20027;-45
2020/12/15 06:20:20;;;;;;;8.57;5.15;;;20.50;55.40;;;;;;5076723;28;20062;-46
2020/12/15 06:22:56;;;;;;;6.93;4.78;;;20.50;55.50;;;;;;5076890;28;20472;-45
2020/12/15 06:25:35;;;;;;;6.90;4.30;;;20.50;55.60;;;;;;5076767;28;20060;-45
2020/12/15 06:28:04;;;;;;;9.23;5.20;;;20.40;55.70;;;;;;5076481;28;20103;-45
2020/12/15 06:30:32;;;;;;;6.80;4.65;;;20.40;55.80;;;;;;5076254;28;20024;-45
2020/12/15 06:33:12;;;;;;;7.65;4.90;;;20.30;55.80;;;;;;5076596;28;20044;-46
2020/12/15 06:35:39;;;;;;;9.75;4.85;;;20.30;56.00;;;;;;5076989;28;20020;-46
2020/12/15 06:38:16;;;;;;;12.63;4.88;;;20.20;55.90;;;;;;5076616;28;20048;-46
2020/12/15 06:40:47;;;;;;;8.27;4.25;;;20.20;55.90;;;;;;5076568;28;20052;-46
2020/12/15 06:43:32;;;;;;;7.10;4.13;;;20.10;55.50;;;;;;5076800;28;20016;-46
2020/12/15 06:46:08;;;;;;;7.68;4.03;;;20.10;55.30;;;;;;5076213;28;20044;-45
2020/12/15 06:48:44;;;;;;;10.50;4.38;;;20.00;55.40;;;;;;5076405;28;20369;-45
2020/12/15 06:51:12;;;;;;;8.20;4.28;;;19.90;55.20;;;;;;5076397;28;20027;-45
2020/12/15 06:53:39;;;;;;;6.63;3.85;;;19.90;55.20;;;;;;5076384;28;20054;-46
2020/12/15 06:56:07;;;;;;;6.63;3.83;;;19.80;55.20;;;;;;5076051;28;20013;-46
2020/12/15 06:58:33;;;;;;;7.15;4.03;;;19.80;55.40;;;;;;5075801;28;20024;-46
2020/12/15 07:01:02;;;;;;;7.05;3.60;;;19.70;55.90;;;;;;5076189;28;20510;-46
2020/12/15 07:03:42;;;;;;;7.50;3.90;;;19.70;56.00;;;;;;5076140;28;20013;-46
2020/12/15 07:06:15;;;;;;;5.25;3.40;;;19.60;56.00;;;;;;5076307;28;20036;-46
2020/12/15 07:08:55;;;;;;;5.95;3.85;;;19.60;56.00;;;;;;5076032;28;20025;-46
2020/12/15 07:11:27;;;;;;;6.40;3.95;;;19.50;56.10;;;;;;5075458;28;20031;-46
2020/12/15 07:14:11;;;;;;;5.00;3.40;;;19.50;56.00;;;;;;5075250;28;20025;-46
2020/12/15 07:16:40;;;;;;;5.60;3.50;;;19.40;56.30;;;;;;5076134;28;20031;-46
2020/12/15 07:19:06;;;;;;;5.78;3.20;;;19.40;56.30;;;;;;5075811;28;20020;-46
2020/12/15 07:21:33;;;;;;;7.47;3.53;;;19.30;56.30;;;;;;5075829;28;20449;-46
2020/12/15 07:24:03;;;;;;;7.50;3.53;;;19.30;56.50;;;;;;5073875;28;20021;-47
2020/12/15 07:26:30;;;;;;;6.85;3.58;;;19.20;56.70;;;;;;5075092;28;20082;-45
2020/12/15 07:28:56;;;;;;;7.88;3.78;;;19.20;56.70;;;;;;5074574;28;20026;-46
2020/12/15 07:31:30;;;;;;;6.35;3.50;;;19.20;56.70;;;;;;5074997;28;20013;-45
2020/12/15 07:34:13;;;;;;;16.33;4.03;;;19.10;57.00;;;;;;5076172;28;20041;-47
2020/12/15 07:36:48;;;;;;;29.98;4.93;;;19.10;57.40;;;;;;5075540;28;20078;-47
2020/12/15 07:39:16;;;;;;;16.42;4.00;;;19.00;57.20;;;;;;5075476;28;20017;-47
2020/12/15 07:41:42;;;;;;;16.25;3.97;;;19.00;56.90;;;;;;5075391;28;20016;-48
2020/12/15 07:44:11;;;;;;;18.35;4.25;;;18.90;56.50;;;;;;5075303;28;20017;-47
2020/12/15 07:46:43;;;;;;;12.40;3.38;;;18.90;56.70;;;;;;5074948;28;20045;-47
2020/12/15 07:49:10;;;;;;;17.60;4.15;;;18.80;56.40;;;;;;5074082;28;20023;-47
2020/12/15 07:51:44;;;;;;;6.57;3.13;;;18.80;56.70;;;;;;5075206;28;20024;-47
2020/12/15 07:54:11;;;;;;;7.90;3.50;;;18.80;56.60;;;;;;5074195;28;20032;-47
2020/12/15 07:56:37;;;;;;;10.57;3.40;;;18.70;56.60;;;;;;5074715;28;20032;-47
2020/12/15 07:59:04;;;;;;;11.52;3.03;;;18.70;56.70;;;;;;5074793;28;20031;-47
2020/12/15 08:01:32;;;;;;;11.00;3.38;;;18.60;56.70;;;;;;5074956;28;20091;-47
2020/12/15 08:04:01;;;;;;;7.13;3.80;;;18.60;57.00;;;;;;5073673;28;20456;-47
2020/12/15 08:06:35;;;;;;;8.68;3.33;;;18.60;57.00;;;;;;5075345;28;20356;-47
2020/12/15 08:09:03;;;;;;;10.60;3.00;;;18.50;57.20;;;;;;5074877;28;20471;-47
2020/12/15 08:11:30;;;;;;;6.93;3.10;;;18.50;57.10;;;;;;5074713;28;20028;-47
2020/12/15 08:13:59;;;;;;;5.88;2.97;;;18.40;57.00;;;;;;5074745;28;20013;-47
2020/12/15 08:16:26;;;;;;;8.07;3.28;;;18.40;57.10;;;;;;5074406;28;20413;-47
2020/12/15 08:19:03;;;;;;;9.65;3.58;;;18.30;57.30;;;;;;5074323;28;20372;-47
2020/12/15 08:21:49;;;;;;;9.25;3.42;;;18.30;57.70;;;;;;5075218;28;20028;-47
2020/12/15 08:24:26;;;;;;;9.43;2.78;;;18.30;57.60;;;;;;5074372;28;20032;-47
2020/12/15 08:26:56;;;;;;;5.65;2.65;;;18.20;57.50;;;;;;5074581;28;20029;-47
2020/12/15 08:29:28;;;;;;;5.82;2.47;;;18.20;57.50;;;;;;5074461;28;20021;-47
2020/12/15 08:31:55;;;;;;;6.07;2.78;;;18.10;57.40;;;;;;5074283;28;20020;-47
2020/12/15 08:34:22;;;;;;;7.68;2.65;;;18.10;57.70;;;;;;5074089;28;20024;-47
2020/12/15 08:36:54;;;;;;;8.13;2.92;;;18.10;57.50;;;;;;5074351;28;20482;-47
2020/12/15 08:39:30;;;;;;;5.03;2.53;;;18.00;57.90;;;;;;5073838;28;20052;-47
2020/12/15 08:41:58;;;;;;;7.15;2.50;;;18.00;58.10;;;;;;5074291;28;20025;-47
2020/12/15 08:44:26;;;;;;;6.43;2.63;;;18.00;58.10;;;;;;5074233;28;20028;-47
2020/12/15 08:46:55;;;;;;;5.20;2.80;;;17.90;58.70;;;;;;5073823;28;20115;-47
2020/12/15 08:49:23;;;;;;;4.82;2.30;;;17.90;58.20;;;;;;5074144;28;20031;-47
2020/12/15 08:51:52;;;;;;;6.55;2.72;;;17.80;58.20;;;;;;5074176;28;20021;-47
2020/12/15 08:54:19;;;;;;;6.00;2.30;;;17.80;58.40;;;;;;5073809;28;20032;-47
2020/12/15 08:56:47;;;;;;;6.57;2.65;;;17.80;58.30;;;;;;5074097;28;20020;-47
2020/12/15 08:59:18;;;;;;;5.43;2.53;;;17.70;58.60;;;;;;5074082;28;20115;-47
2020/12/15 09:01:46;;;;;;;7.68;2.38;;;17.70;58.70;;;;;;5073710;28;20534;-47
2020/12/15 09:04:23;;;;;;;6.07;2.60;;;17.70;58.70;;;;;;5073937;28;20035;-47
2020/12/15 09:06:50;;;;;;;7.43;2.58;;;17.70;58.70;;;;;;5074206;28;20063;-47
2020/12/15 09:09:23;;;;;;;4.93;2.40;;;17.60;58.80;;;;;;5073644;28;20073;-47
2020/12/15 09:11:56;;;;;;;4.55;2.53;;;17.60;58.70;;;;;;5073889;28;20028;-47
2020/12/15 09:14:23;;;;;;;4.05;2.20;;;17.60;58.90;;;;;;5073348;28;20020;-47
2020/12/15 09:16:50;;;;;;;5.57;2.38;;;17.50;58.80;;;;;;5073444;28;20103;-47
2020/12/15 09:19:19;;;;;;;8.80;2.45;;;17.50;59.00;;;;;;5073543;28;20023;-47
2020/12/15 09:22:00;;;;;;;6.60;2.42;;;17.50;59.10;;;;;;5073938;28;20032;-47
2020/12/15 09:24:28;;;;;;;4.38;2.13;;;17.40;59.30;;;;;;5073419;28;20449;-47
2020/12/15 09:26:55;;;;;;;5.72;2.58;;;17.40;59.30;;;;;;5072415;28;20032;-47
2020/12/15 09:29:22;;;;;;;4.72;2.50;;;17.40;59.50;;;;;;5073619;28;20052;-47
2020/12/15 09:31:53;;;;;;;5.60;1.95;;;17.30;59.40;;;;;;5073106;28;20428;-47
2020/12/15 09:34:21;;;;;;;6.93;2.00;;;17.30;59.60;;;;;;5073341;28;20464;-47
2020/12/15 09:36:58;;;;;;;4.53;2.35;;;17.30;59.50;;;;;;5073078;28;20092;-47
2020/12/15 09:39:26;;;;;;;7.63;2.33;;;17.30;59.80;;;;;;5073734;28;20056;-47
2020/12/15 09:41:56;;;;;;;4.50;2.28;;;17.20;59.80;;;;;;5073387;28;20021;-47
2020/12/15 09:44:23;;;;;;;4.63;1.92;;;17.20;59.80;;;;;;5073398;28;20031;-47
2020/12/15 09:46:49;;;;;;;4.18;2.05;;;17.10;59.90;;;;;;5073150;28;20047;-47
2020/12/15 09:49:16;;;;;;;4.85;2.13;;;17.20;59.90;;;;;;5073595;28;20067;-47
2020/12/15 09:51:43;;;;;;;6.85;2.15;;;17.10;60.00;;;;;;5073834;28;20522;-47
2020/12/15 09:54:12;;;;;;;4.30;2.13;;;17.10;60.00;;;;;;5076712;28;20084;-47
2020/12/15 09:56:44;;;;;;;4.80;2.05;;;17.10;60.20;;;;;;5076718;28;20020;-47
2020/12/15 09:59:12;;;;;;;4.70;1.67;;;17.00;60.20;;;;;;5057453;28;20116;-46
2020/12/15 10:01:42;;;;;;;2.95;1.70;;;17.00;60.30;;;;;;5068915;28;20056;-47
2020/12/15 10:04:09;;;;;;;5.10;2.45;;;17.00;60.40;;;;;;5076770;28;20391;-47
2020/12/15 10:06:36;;;;;;;3.65;1.90;;;16.90;60.40;;;;;;5077130;28;20552;-47
2020/12/15 10:09:04;;;;;;;3.72;2.00;;;16.90;60.50;;;;;;5077676;28;20060;-47
2020/12/15 10:11:31;;;;;;;3.50;1.92;;;16.90;60.50;;;;;;5076774;28;20016;-47
2020/12/15 10:13:57;;;;;;;4.30;1.90;;;16.90;60.50;;;;;;5077090;28;20024;-47
2020/12/15 10:16:24;;;;;;;4.55;1.80;;;16.90;60.70;;;;;;5077009;28;20074;-47
2020/12/15 10:18:50;;;;;;;4.30;1.90;;;16.80;60.60;;;;;;5076998;28;20109;-47
2020/12/15 10:21:18;;;;;;;3.38;1.90;;;16.80;60.60;;;;;;5076504;28;20043;-47
2020/12/15 10:23:49;;;;;;;4.03;1.77;;;16.80;60.60;;;;;;5076714;28;20021;-47
2020/12/15 10:26:24;;;;;;;4.68;1.73;;;16.80;60.70;;;;;;5076263;28;20182;-47
2020/12/15 10:28:54;;;;;;;4.60;2.00;;;16.80;60.80;;;;;;5076787;28;20032;-47
2020/12/15 10:31:21;;;;;;;2.60;1.80;;;16.70;60.70;;;;;;5077326;28;20028;-47
2020/12/15 10:33:48;;;;;;;3.67;1.88;;;16.70;60.80;;;;;;5076470;28;20478;-47
2020/12/15 10:36:16;;;;;;;3.97;1.80;;;16.70;60.90;;;;;;5076319;28;20033;-47
2020/12/15 10:38:43;;;;;;;2.72;1.58;;;16.70;60.90;;;;;;5075312;28;20411;-47
2020/12/15 10:41:10;;;;;;;3.65;1.85;;;16.60;60.90;;;;;;5076560;28;20055;-47
2020/12/15 10:43:37;;;;;;;3.75;1.73;;;16.60;61.00;;;;;;5076505;28;20107;-47
2020/12/15 10:46:03;;;;;;;2.72;1.42;;;16.60;61.20;;;;;;5075948;28;20033;-47
2020/12/15 10:48:30;;;;;;;6.75;1.77;;;16.50;61.10;;;;;;5076451;28;20439;-47
2020/12/15 10:50:57;;;;;;;4.78;1.80;;;16.50;61.20;;;;;;5076708;28;20050;-47
2020/12/15 10:53:23;;;;;;;2.80;1.58;;;16.50;61.20;;;;;;5076379;28;20449;-47
2020/12/15 10:55:51;;;;;;;4.45;1.67;;;16.50;61.30;;;;;;5076298;28;20044;-47
2020/12/15 10:58:18;;;;;;;3.15;1.80;;;16.50;61.30;;;;;;5075054;28;20094;-47
2020/12/15 11:00:45;;;;;;;3.28;1.80;;;16.50;61.30;;;;;;5074981;28;20017;-47
2020/12/15 11:03:12;;;;;;;5.18;1.73;;;16.40;61.30;;;;;;5076037;28;20452;-47
2020/12/15 11:05:39;;;;;;;4.47;1.90;;;16.40;61.30;;;;;;5076293;28;20477;-47
2020/12/15 11:08:05;;;;;;;3.67;1.67;;;16.40;61.30;;;;;;5076310;28;20076;-47
2020/12/15 11:10:32;;;;;;;3.42;1.63;;;16.40;61.40;;;;;;5075722;28;20445;-47
2020/12/15 11:13:00;;;;;;;2.13;1.55;;;16.30;61.40;;;;;;5076024;28;20027;-47
2020/12/15 11:15:27;;;;;;;4.32;1.60;;;16.30;61.40;;;;;;5076001;28;20074;-47
2020/12/15 11:17:53;;;;;;;4.07;1.40;;;16.30;61.40;;;;;;5076199;28;20025;-47
2020/12/15 11:20:21;;;;;;;4.28;1.77;;;16.30;61.50;;;;;;5075862;28;20061;-47
2020/12/15 11:22:48;;;;;;;2.85;1.70;;;16.20;61.50;;;;;;5075163;28;20407;-47
2020/12/15 11:25:17;;;;;;;3.03;1.70;;;16.20;62.10;;;;;;5075679;28;20038;-47
2020/12/15 11:27:44;;;;;;;3.70;1.77;;;16.20;61.50;;;;;;5075455;28;20039;-46
2020/12/15 11:30:12;;;;;;;4.00;1.73;;;16.20;61.70;;;;;;5074818;28;20490;-47
2020/12/15 11:32:38;;;;;;;3.45;1.50;;;16.20;61.70;;;;;;5075615;28;20051;-47
2020/12/15 11:35:05;;;;;;;2.67;1.60;;;16.10;61.80;;;;;;5075265;28;20020;-47
2020/12/15 11:37:31;;;;;;;2.78;1.40;;;16.10;61.90;;;;;;5075571;28;20017;-47
2020/12/15 11:39:58;;;;;;;3.45;1.40;;;16.10;61.90;;;;;;5075165;28;20051;-47
2020/12/15 11:42:24;;;;;;;2.60;1.42;;;16.00;61.90;;;;;;5075470;28;20449;-47
2020/12/15 11:44:51;;;;;;;4.50;1.60;;;16.00;61.90;;;;;;5075078;28;20012;-47
2020/12/15 11:47:19;;;;;;;5.28;1.63;;;16.00;62.00;;;;;;5075213;28;20044;-47
2020/12/15 11:49:46;;;;;;;2.72;1.50;;;16.00;62.10;;;;;;5075278;28;20056;-46
2020/12/15 11:52:12;;;;;;;1.98;1.33;;;16.00;62.10;;;;;;5075150;28;20461;-47
2020/12/15 11:54:40;;;;;;;2.13;1.30;;;15.90;62.20;;;;;;5074619;28;20464;-46
2020/12/15 11:57:08;;;;;;;4.13;1.60;;;15.90;62.10;;;;;;5075069;28;20104;-47
2020/12/15 11:59:37;;;;;;;1.90;1.27;;;15.90;62.00;;;;;;5074931;28;20368;-47
2020/12/15 12:02:04;;;;;;;2.03;1.27;;;15.90;62.00;;;;;;5074599;28;20021;-47
2020/12/15 12:04:31;;;;;;;2.33;1.38;;;15.90;62.10;;;;;;5074683;28;20360;-47
2020/12/15 12:06:57;;;;;;;3.33;1.42;;;15.90;62.00;;;;;;5074592;28;20435;-47
2020/12/15 12:09:24;;;;;;;5.97;1.98;;;15.90;62.00;;;;;;5074571;28;20037;-48
2020/12/15 12:11:50;;;;;;;6.75;1.80;;;15.80;62.30;;;;;;5074804;28;20043;-49
2020/12/15 12:14:18;;;;;;;8.13;1.40;;;15.80;62.30;;;;;;5074020;28;20031;-49
2020/12/15 12:16:44;;;;;;;3.92;1.50;;;15.80;62.30;;;;;;5074740;28;20086;-49
2020/12/15 12:19:11;;;;;;;5.82;1.60;;;15.80;62.30;;;;;;5074397;28;20021;-49
2020/12/15 12:21:39;;;;;;;3.85;1.50;;;15.70;62.10;;;;;;5074563;28;20035;-48
2020/12/15 12:24:05;;;;;;;3.58;1.52;;;15.70;61.90;;;;;;5075098;28;20099;-48
2020/12/15 12:26:32;;;;;;;2.85;1.42;;;15.70;61.70;;;;;;5074502;28;20025;-48
2020/12/15 12:28:59;;;;;;;4.57;1.60;;;15.70;61.90;;;;;;5074498;28;20017;-48
2020/12/15 12:31:26;;;;;;;2.88;1.50;;;15.70;61.80;;;;;;5074220;28;20016;-48
2020/12/15 12:33:52;;;;;;;3.60;1.67;;;15.70;61.70;;;;;;5074664;28;20464;-48
2020/12/15 12:36:19;;;;;;;4.88;1.35;;;15.60;61.60;;;;;;5074684;28;20047;-49
2020/12/15 12:38:46;;;;;;;3.33;1.20;;;15.60;61.60;;;;;;5074674;28;20024;-49
2020/12/15 12:41:16;;;;;;;4.10;1.40;;;15.60;61.60;;;;;;5074343;28;20028;-49